Time;durP1;ratioP1;P1;durP2;ratioP2;P2;SDS_P1;SDS_P2;PMS_P1;PMS_P2;Temp;Humidity;BMP_temperature;BMP_pressure;BME280_temperature;BME280_humidity;BME280_pressure;Samples;Min_cycle;Max_cycle;Signal;HPM_P1;HPM_P2
2023/07/14 00:00:29;;;;;;;8.65;6.32;;;16.80;99.90;;;;;;5069323;28;20036;-71
2023/07/14 00:02:55;;;;;;;8.18;6.30;;;16.80;99.90;;;;;;5067628;28;20049;-71
2023/07/14 00:05:28;;;;;;;8.93;6.05;;;16.70;99.90;;;;;;5069647;28;20029;-71
2023/07/14 00:07:57;;;;;;;9.57;5.70;;;16.70;99.90;;;;;;5061111;28;20098;-71
2023/07/14 00:10:31;;;;;;;8.40;6.60;;;16.60;99.90;;;;;;5070017;28;20033;-71
2023/07/14 00:12:58;;;;;;;9.57;6.47;;;16.60;99.90;;;;;;5065412;28;20136;-71
2023/07/14 00:15:24;;;;;;;9.50;6.85;;;16.50;99.90;;;;;;5066547;28;20504;-71
2023/07/14 00:17:52;;;;;;;8.40;6.28;;;16.40;99.90;;;;;;5066490;28;20029;-71
2023/07/14 00:20:24;;;;;;;10.88;6.78;;;16.30;99.90;;;;;;5069454;28;20091;-71
2023/07/14 00:22:51;;;;;;;10.63;7.38;;;16.30;99.90;;;;;;5059037;28;20033;-71
2023/07/14 00:25:18;;;;;;;10.52;7.43;;;16.20;99.90;;;;;;5070025;28;20434;-71
2023/07/14 00:27:43;;;;;;;9.93;7.00;;;16.20;99.90;;;;;;5065766;28;20760;-71
2023/07/14 00:30:16;;;;;;;12.52;7.70;;;16.20;99.90;;;;;;5069088;28;20120;-71
2023/07/14 00:32:42;;;;;;;11.13;7.32;;;16.20;99.90;;;;;;5065736;28;20032;-71
2023/07/14 00:35:23;;;;;;;10.68;8.05;;;16.10;99.90;;;;;;5068237;28;20058;-71
2023/07/14 00:37:51;;;;;;;11.60;7.38;;;16.20;99.90;;;;;;5053911;28;20032;-71
2023/07/14 00:40:20;;;;;;;12.40;8.52;;;16.10;99.90;;;;;;5067864;28;20108;-71
2023/07/14 00:42:51;;;;;;;12.20;8.80;;;16.20;99.90;;;;;;5069090;28;20054;-71
2023/07/14 00:45:20;;;;;;;16.73;10.55;;;16.10;99.90;;;;;;5064358;28;20027;-71
2023/07/14 00:47:52;;;;;;;11.95;9.20;;;16.10;99.90;;;;;;5068939;28;20035;-71
2023/07/14 00:50:46;;;;;;;10.77;9.13;;;16.10;99.90;;;;;;5069152;28;20021;-71
2023/07/14 00:53:19;;;;;;;13.40;9.10;;;16.00;99.90;;;;;;5067897;28;20029;-71
2023/07/14 00:56:10;;;;;;;14.40;10.68;;;16.00;99.90;;;;;;5064491;28;20056;-71
2023/07/14 00:58:37;;;;;;;14.27;10.10;;;16.00;99.90;;;;;;5068198;28;20031;-71
2023/07/14 01:01:08;;;;;;;12.43;9.52;;;15.90;99.90;;;;;;5069590;28;20038;-71
2023/07/14 01:03:39;;;;;;;13.05;9.60;;;15.90;99.90;;;;;;5072581;28;20032;-71
2023/07/14 01:06:26;;;;;;;14.48;11.35;;;15.90;99.90;;;;;;5071146;28;20115;-71
2023/07/14 01:09:03;;;;;;;14.55;11.40;;;15.80;99.90;;;;;;5066676;28;20044;-71
2023/07/14 01:11:42;;;;;;;16.23;11.02;;;15.80;99.90;;;;;;5060390;28;20029;-71
2023/07/14 01:14:13;;;;;;;17.42;12.30;;;15.80;99.90;;;;;;5073088;28;20449;-71
2023/07/14 01:16:40;;;;;;;17.92;12.57;;;15.90;99.90;;;;;;5072099;28;20028;-71
2023/07/14 01:19:16;;;;;;;14.82;11.35;;;15.80;99.90;;;;;;5067758;28;20445;-71
2023/07/14 01:21:46;;;;;;;18.02;12.73;;;15.80;99.90;;;;;;5071886;28;20103;-71
2023/07/14 01:24:23;;;;;;;17.05;12.70;;;15.80;99.90;;;;;;5070481;28;20408;-71
2023/07/14 01:27:04;;;;;;;17.05;12.57;;;15.80;99.90;;;;;;5071352;28;20099;-71
2023/07/14 01:29:32;;;;;;;19.35;12.85;;;15.80;99.90;;;;;;5066415;28;20117;-71
2023/07/14 01:31:58;;;;;;;17.17;13.57;;;15.70;99.90;;;;;;5072444;28;20016;-71
2023/07/14 01:34:24;;;;;;;19.17;13.88;;;15.70;99.90;;;;;;5072432;28;20067;-71
2023/07/14 01:36:50;;;;;;;19.05;14.27;;;15.70;99.90;;;;;;5070947;28;20052;-71
2023/07/14 01:39:17;;;;;;;17.42;12.85;;;15.80;99.90;;;;;;5069746;28;20078;-71
2023/07/14 01:41:42;;;;;;;14.88;13.27;;;15.80;99.90;;;;;;5067908;28;20365;-71
2023/07/14 01:44:16;;;;;;;16.30;13.23;;;15.80;99.90;;;;;;5071810;28;20036;-71
2023/07/14 01:46:42;;;;;;;19.42;13.02;;;15.80;99.90;;;;;;5070036;28;20090;-71
2023/07/14 01:49:25;;;;;;;17.08;12.82;;;15.80;99.90;;;;;;5072811;28;20447;-71
2023/07/14 01:51:55;;;;;;;18.83;12.73;;;15.70;99.90;;;;;;5068999;28;20044;-70
2023/07/14 01:54:35;;;;;;;16.90;12.65;;;15.70;99.90;;;;;;5070562;28;20029;-71
2023/07/14 01:57:06;;;;;;;16.58;13.05;;;15.70;99.90;;;;;;5071029;28;20021;-70
2023/07/14 01:59:39;;;;;;;15.70;11.82;;;15.60;99.90;;;;;;5070083;28;20514;-71
2023/07/14 02:02:11;;;;;;;15.52;12.00;;;15.60;99.90;;;;;;5071044;28;20556;-71
2023/07/14 02:04:39;;;;;;;18.42;13.57;;;15.50;99.90;;;;;;5063437;28;20036;-71
2023/07/14 02:07:04;;;;;;;16.58;12.43;;;15.50;99.90;;;;;;5067222;28;20262;-71
2023/07/14 02:09:32;;;;;;;19.50;14.07;;;15.50;99.90;;;;;;5068107;28;20059;-70
2023/07/14 02:12:02;;;;;;;17.13;12.27;;;15.40;99.90;;;;;;5071072;28;20096;-71
2023/07/14 02:14:36;;;;;;;22.05;14.05;;;15.40;99.90;;;;;;5070143;28;20082;-71
2023/07/14 02:17:05;;;;;;;15.85;12.77;;;15.50;99.90;;;;;;5068313;28;20108;-71
2023/07/14 02:19:32;;;;;;;15.98;12.35;;;15.40;99.90;;;;;;5071108;28;20504;-71
2023/07/14 02:21:58;;;;;;;16.13;14.18;;;15.40;99.90;;;;;;5071063;28;20020;-70
2023/07/14 02:24:26;;;;;;;17.42;12.23;;;15.40;99.90;;;;;;5068598;28;20028;-71
2023/07/14 02:27:01;;;;;;;21.00;13.85;;;15.50;99.90;;;;;;5066660;28;20017;-70
2023/07/14 02:29:27;;;;;;;18.15;12.55;;;15.50;99.90;;;;;;5069180;28;20107;-71
2023/07/14 02:32:15;;;;;;;15.77;12.73;;;15.50;99.90;;;;;;5071408;28;20025;-70
2023/07/14 02:34:47;;;;;;;17.40;12.52;;;15.60;99.90;;;;;;5071828;28;20118;-71
2023/07/14 02:37:40;;;;;;;14.70;12.43;;;15.60;99.90;;;;;;5068045;28;20048;-70
2023/07/14 02:40:07;;;;;;;;;;;15.60;99.90;;;;;;5070772;28;20074;-70
2023/07/14 02:42:37;;;;;;;16.73;12.43;;;15.60;99.90;;;;;;5064617;28;19912;-71
2023/07/14 02:45:03;;;;;;;15.68;12.85;;;15.60;99.90;;;;;;5070025;28;20024;-70
2023/07/14 02:47:32;;;;;;;17.17;12.07;;;15.60;99.90;;;;;;5070620;28;20024;-70
2023/07/14 02:49:58;;;;;;;17.92;13.45;;;15.50;99.90;;;;;;5070367;28;20021;-71
2023/07/14 02:52:23;;;;;;;15.02;13.43;;;15.60;99.90;;;;;;5067359;28;20103;-71
2023/07/14 02:54:49;;;;;;;21.17;12.70;;;15.60;99.90;;;;;;5069778;28;20028;-71
2023/07/14 02:57:15;;;;;;;19.52;11.70;;;15.60;99.90;;;;;;5069900;28;20028;-71
2023/07/14 02:59:40;;;;;;;16.95;12.48;;;15.50;99.90;;;;;;5070947;28;20037;-71
2023/07/14 03:02:06;;;;;;;17.85;12.77;;;15.60;99.90;;;;;;5063995;28;20354;-71
2023/07/14 03:04:34;;;;;;;16.60;11.90;;;15.60;99.90;;;;;;5069767;28;20044;-71
2023/07/14 03:07:00;;;;;;;13.30;11.18;;;15.50;99.90;;;;;;5069762;28;20032;-71
2023/07/14 03:09:26;;;;;;;15.20;10.90;;;15.60;99.90;;;;;;5067973;28;20036;-71
2023/07/14 03:11:52;;;;;;;16.08;11.98;;;15.50;99.90;;;;;;5068288;28;20027;-70
2023/07/14 03:14:17;;;;;;;15.35;10.45;;;15.50;99.90;;;;;;5059624;28;20591;-71
2023/07/14 03:16:43;;;;;;;13.15;10.38;;;15.40;99.90;;;;;;5065654;28;20479;-70
2023/07/14 03:19:09;;;;;;;13.25;11.25;;;15.40;99.90;;;;;;5068548;28;20076;-70
2023/07/14 03:21:34;;;;;;;16.42;10.43;;;15.30;99.90;;;;;;5069859;28;20354;-71
2023/07/14 03:24:00;;;;;;;15.73;11.00;;;15.30;99.90;;;;;;5067416;28;20040;-71
2023/07/14 03:26:25;;;;;;;15.38;10.98;;;15.20;99.90;;;;;;5057343;28;20028;-71
2023/07/14 03:28:51;;;;;;;15.23;10.13;;;15.20;99.90;;;;;;5068987;28;20565;-71
2023/07/14 03:31:17;;;;;;;13.70;9.82;;;15.10;99.90;;;;;;5068503;28;20043;-71
2023/07/14 03:33:43;;;;;;;15.23;10.73;;;15.00;99.90;;;;;;5069783;28;20111;-71
2023/07/14 03:36:12;;;;;;;14.95;9.98;;;15.00;99.90;;;;;;5069497;28;20070;-71
2023/07/14 03:38:43;;;;;;;13.38;10.35;;;15.00;99.90;;;;;;5065766;28;20408;-71
2023/07/14 03:41:13;;;;;;;14.82;10.05;;;14.90;99.90;;;;;;5101548;28;20544;-71
2023/07/14 03:43:39;;;;;;;14.27;9.88;;;14.80;99.90;;;;;;5068149;28;20063;-71
2023/07/14 03:46:06;;;;;;;16.52;10.43;;;14.80;99.90;;;;;;5067742;28;20133;-70
2023/07/14 03:48:31;;;;;;;18.85;11.25;;;14.80;99.90;;;;;;5068581;28;20395;-70
2023/07/14 03:51:04;;;;;;;15.40;11.43;;;14.80;99.90;;;;;;5068495;28;20115;-71
2023/07/14 03:53:30;;;;;;;12.70;10.18;;;14.80;99.90;;;;;;5069777;28;20059;-71
2023/07/14 03:55:57;;;;;;;15.13;11.35;;;14.80;99.90;;;;;;5070286;28;20020;-71
2023/07/14 03:58:22;;;;;;;13.45;10.05;;;14.80;99.90;;;;;;5066501;28;20063;-70
2023/07/14 04:00:48;;;;;;;13.88;9.63;;;14.80;99.90;;;;;;5065536;28;20064;-71
2023/07/14 04:03:13;;;;;;;16.75;9.32;;;14.80;99.90;;;;;;5067220;28;20057;-71
2023/07/14 04:05:45;;;;;;;16.92;10.13;;;14.80;99.90;;;;;;5064891;28;20028;-71
2023/07/14 04:08:10;;;;;;;15.80;9.93;;;14.90;99.90;;;;;;5069191;28;20068;-70
2023/07/14 04:10:36;;;;;;;13.80;9.70;;;14.90;99.90;;;;;;5067642;28;20048;-71
2023/07/14 04:13:02;;;;;;;13.43;9.13;;;14.90;99.90;;;;;;5069653;28;20033;-71
2023/07/14 04:15:28;;;;;;;19.88;10.00;;;14.90;99.90;;;;;;5069756;28;20510;-70
2023/07/14 04:17:53;;;;;;;11.57;8.88;;;14.90;99.90;;;;;;5068931;28;20082;-71
2023/07/14 04:20:19;;;;;;;13.20;10.07;;;15.00;99.90;;;;;;5070967;28;20028;-70
2023/07/14 04:22:44;;;;;;;12.77;8.82;;;15.00;99.90;;;;;;5065308;28;20031;-71
2023/07/14 04:25:11;;;;;;;14.88;10.07;;;15.10;99.90;;;;;;5058515;28;20118;-70
2023/07/14 04:27:37;;;;;;;14.07;9.00;;;15.10;99.90;;;;;;5065991;28;20422;-70
2023/07/14 04:30:04;;;;;;;13.00;8.80;;;15.10;99.90;;;;;;5068173;28;20031;-71
2023/07/14 04:32:30;;;;;;;14.50;10.32;;;15.20;99.90;;;;;;5066141;28;20100;-71
2023/07/14 04:34:56;;;;;;;16.55;11.32;;;15.20;99.90;;;;;;5067639;28;20072;-71
2023/07/14 04:37:22;;;;;;;15.90;11.13;;;15.30;99.90;;;;;;5068640;28;20361;-71
2023/07/14 04:39:47;;;;;;;14.90;10.80;;;15.30;99.90;;;;;;5071375;28;20043;-71
2023/07/14 04:42:13;;;;;;;15.90;10.57;;;15.40;99.90;;;;;;5071559;28;20096;-70
2023/07/14 04:44:39;;;;;;;13.93;10.70;;;15.40;99.90;;;;;;5072462;28;20040;-70
2023/07/14 04:47:05;;;;;;;16.13;11.93;;;15.40;99.90;;;;;;5072334;28;20040;-70
2023/07/14 04:49:31;;;;;;;15.30;11.18;;;15.40;99.90;;;;;;5071302;28;20032;-70
2023/07/14 04:51:56;;;;;;;16.27;11.98;;;15.50;99.90;;;;;;5070202;28;20388;-70
2023/07/14 04:54:23;;;;;;;17.45;11.35;;;15.50;99.90;;;;;;5072950;28;20073;-70
2023/07/14 04:56:50;;;;;;;16.08;11.43;;;15.50;99.90;;;;;;5068971;28;20541;-70
2023/07/14 04:59:16;;;;;;;16.15;12.23;;;15.50;99.90;;;;;;5070719;28;20029;-70
2023/07/14 05:01:42;;;;;;;16.33;11.98;;;15.50;99.90;;;;;;5067282;28;20036;-71
2023/07/14 05:04:07;;;;;;;17.40;12.10;;;15.50;99.90;;;;;;5071363;28;20174;-70
2023/07/14 05:06:33;;;;;;;18.73;12.15;;;15.50;99.90;;;;;;5072089;28;20715;-70
2023/07/14 05:08:59;;;;;;;18.50;12.20;;;15.50;99.90;;;;;;5068431;28;20032;-70
2023/07/14 05:11:25;;;;;;;16.33;12.52;;;15.60;99.90;;;;;;5072205;28;20143;-70
2023/07/14 05:13:52;;;;;;;16.33;12.73;;;15.70;99.90;;;;;;5070771;28;20119;-70
2023/07/14 05:16:18;;;;;;;14.50;10.65;;;15.80;99.90;;;;;;5071748;28;20035;-70
2023/07/14 05:18:43;;;;;;;16.25;11.27;;;15.90;99.90;;;;;;5065161;28;20033;-70
2023/07/14 05:21:09;;;;;;;16.23;10.30;;;16.00;99.90;;;;;;5071677;28;20543;-70
2023/07/14 05:23:34;;;;;;;15.80;11.43;;;16.10;99.90;;;;;;5070137;28;20098;-70
2023/07/14 05:26:00;;;;;;;21.10;11.32;;;16.20;99.90;;;;;;5072358;28;20021;-70
2023/07/14 05:28:26;;;;;;;15.23;10.63;;;16.20;99.90;;;;;;5071393;28;20484;-70
2023/07/14 05:30:52;;;;;;;15.30;10.65;;;16.30;99.90;;;;;;5069299;28;20025;-70
2023/07/14 05:33:19;;;;;;;19.17;11.45;;;16.40;99.90;;;;;;5073422;28;20024;-70
2023/07/14 05:35:45;;;;;;;12.57;10.13;;;16.60;99.90;;;;;;5073059;28;20028;-70
2023/07/14 05:38:11;;;;;;;12.18;10.32;;;16.60;99.90;;;;;;5072743;28;20039;-70
2023/07/14 05:40:37;;;;;;;15.18;10.43;;;16.70;99.90;;;;;;5069049;28;20024;-70
2023/07/14 05:43:03;;;;;;;16.77;10.32;;;16.70;99.90;;;;;;5069904;28;20044;-70
2023/07/14 05:45:29;;;;;;;14.07;10.77;;;16.80;99.90;;;;;;5070176;28;20032;-70
2023/07/14 05:47:55;;;;;;;13.68;10.68;;;16.90;99.90;;;;;;5070838;28;20024;-70
2023/07/14 05:50:21;;;;;;;14.55;10.20;;;16.90;99.90;;;;;;5072384;28;20104;-70
2023/07/14 05:52:46;;;;;;;17.08;10.73;;;17.00;99.90;;;;;;5071983;28;20056;-70
2023/07/14 05:55:12;;;;;;;13.27;9.27;;;17.10;99.90;;;;;;5059570;28;20437;-70
2023/07/14 05:57:38;;;;;;;14.82;10.80;;;17.10;99.90;;;;;;5063422;28;20048;-70
2023/07/14 06:00:16;;;;;;;11.30;9.13;;;17.20;99.90;;;;;;5063036;28;20017;-70
2023/07/14 06:02:43;;;;;;;11.50;8.88;;;17.30;99.90;;;;;;5066819;28;20147;-70
2023/07/14 06:05:10;;;;;;;11.85;9.32;;;17.40;99.90;;;;;;5068735;28;20107;-70
2023/07/14 06:07:37;;;;;;;13.70;9.50;;;17.40;99.90;;;;;;5064143;28;20120;-71
2023/07/14 06:10:03;;;;;;;11.02;9.40;;;17.40;99.90;;;;;;5071333;28;20028;-70
2023/07/14 06:12:29;;;;;;;17.40;9.00;;;17.40;99.90;;;;;;5072160;28;20024;-70
2023/07/14 06:14:55;;;;;;;14.52;9.93;;;17.40;99.90;;;;;;5071021;28;20025;-71
2023/07/14 06:17:20;;;;;;;13.23;9.27;;;17.50;99.90;;;;;;5071537;28;20430;-70
2023/07/14 06:19:46;;;;;;;12.75;10.25;;;17.60;99.90;;;;;;5066203;28;20025;-70
2023/07/14 06:22:12;;;;;;;13.13;9.55;;;17.70;99.90;;;;;;5070706;28;20028;-71
2023/07/14 06:24:37;;;;;;;12.23;9.10;;;17.90;99.90;;;;;;5072152;28;20094;-70
2023/07/14 06:27:05;;;;;;;10.52;7.28;;;18.00;99.90;;;;;;5072368;28;20020;-70
2023/07/14 06:29:31;;;;;;;9.82;6.57;;;18.10;99.90;;;;;;5069344;28;20055;-71
2023/07/14 06:31:57;;;;;;;9.75;6.80;;;18.10;99.90;;;;;;5071477;28;20055;-71
2023/07/14 06:34:23;;;;;;;12.05;7.32;;;18.20;99.90;;;;;;5067965;28;20032;-71
2023/07/14 06:36:49;;;;;;;10.38;6.80;;;18.40;99.90;;;;;;5064502;28;20898;-71
2023/07/14 06:39:14;;;;;;;9.32;5.35;;;18.50;99.90;;;;;;5069642;28;20044;-71
2023/07/14 06:41:40;;;;;;;11.43;4.82;;;18.60;99.90;;;;;;5067446;28;20426;-71
2023/07/14 06:44:06;;;;;;;8.50;4.35;;;18.60;99.90;;;;;;5067756;28;20048;-71
2023/07/14 06:46:32;;;;;;;10.10;3.58;;;18.60;99.90;;;;;;5068700;28;20523;-71
2023/07/14 06:48:57;;;;;;;6.35;3.88;;;18.60;99.90;;;;;;5068764;28;20025;-71
2023/07/14 06:51:24;;;;;;;8.23;3.85;;;18.60;99.90;;;;;;5066095;28;20024;-72
2023/07/14 06:53:50;;;;;;;6.90;3.75;;;18.60;99.90;;;;;;5068530;28;20060;-72
2023/07/14 06:56:16;;;;;;;8.05;3.47;;;18.60;99.90;;;;;;5067899;28;20420;-71
2023/07/14 06:58:42;;;;;;;7.80;3.05;;;18.70;99.90;;;;;;5063605;28;20107;-72
2023/07/14 07:01:07;;;;;;;5.90;2.30;;;18.80;99.90;;;;;;5066010;28;20159;-72
2023/07/14 07:03:34;;;;;;;8.98;2.50;;;18.90;99.90;;;;;;5069441;28;20040;-72
2023/07/14 07:06:00;;;;;;;8.48;3.17;;;18.90;99.90;;;;;;5070675;28;20040;-73
2023/07/14 07:08:26;;;;;;;7.57;2.72;;;18.90;99.90;;;;;;5070214;28;20029;-72
2023/07/14 07:10:52;;;;;;;5.60;2.83;;;18.90;99.90;;;;;;5070821;28;20503;-72
2023/07/14 07:13:18;;;;;;;7.13;3.17;;;18.90;99.90;;;;;;5068784;28;20029;-72
2023/07/14 07:15:44;;;;;;;6.70;2.90;;;19.00;99.90;;;;;;5062299;28;20051;-72
2023/07/14 07:18:10;;;;;;;6.50;2.80;;;19.10;99.90;;;;;;5070313;28;20468;-72
2023/07/14 07:20:37;;;;;;;5.50;2.50;;;19.20;99.90;;;;;;5069444;28;20032;-72
2023/07/14 07:23:04;;;;;;;5.55;2.22;;;19.20;99.90;;;;;;5069779;28;20477;-73
2023/07/14 07:25:29;;;;;;;5.63;2.17;;;19.30;99.90;;;;;;5068395;28;20036;-72
2023/07/14 07:27:55;;;;;;;7.30;2.75;;;19.30;99.90;;;;;;5068708;28;20027;-72
2023/07/14 07:30:20;;;;;;;5.07;2.53;;;19.40;99.90;;;;;;5068223;28;20165;-72
2023/07/14 07:32:47;;;;;;;9.23;2.30;;;19.50;99.90;;;;;;5063662;28;20020;-72
2023/07/14 07:35:13;;;;;;;3.65;1.65;;;19.60;99.90;;;;;;5070508;28;20544;-72
2023/07/14 07:37:39;;;;;;;7.13;2.53;;;19.70;99.90;;;;;;5070715;28;20025;-72
2023/07/14 07:40:09;;;;;;;4.43;1.35;;;19.80;99.90;;;;;;5070156;28;20024;-72
2023/07/14 07:42:34;;;;;;;6.55;1.85;;;20.00;99.90;;;;;;5069617;28;20021;-72
2023/07/14 07:45:01;;;;;;;8.82;1.83;;;20.20;99.90;;;;;;5069409;28;20391;-72
2023/07/14 07:47:28;;;;;;;6.47;1.48;;;20.10;99.90;;;;;;5070792;28;20067;-72
2023/07/14 07:49:53;;;;;;;8.77;1.17;;;20.10;99.90;;;;;;5059033;28;20024;-72
2023/07/14 07:52:19;;;;;;;6.25;1.38;;;20.20;99.90;;;;;;5070903;28;20476;-72
2023/07/14 07:54:45;;;;;;;3.28;1.10;;;20.40;99.90;;;;;;5070675;28;20031;-72
2023/07/14 07:57:10;;;;;;;7.78;1.20;;;20.50;99.90;;;;;;5060484;28;20044;-72
2023/07/14 07:59:36;;;;;;;3.83;1.38;;;20.60;99.90;;;;;;5064355;28;20499;-72
2023/07/14 08:02:03;;;;;;;5.65;1.80;;;20.80;99.90;;;;;;5070577;28;20044;-72
2023/07/14 08:04:28;;;;;;;3.67;1.23;;;20.90;99.90;;;;;;5070120;28;20036;-72
2023/07/14 08:06:54;;;;;;;3.22;1.27;;;20.90;99.90;;;;;;5070823;28;20062;-72
2023/07/14 08:09:20;;;;;;;2.60;0.85;;;20.90;99.90;;;;;;5070763;28;20036;-72
2023/07/14 08:11:46;;;;;;;3.72;0.95;;;20.90;99.90;;;;;;5067379;28;20020;-72
2023/07/14 08:14:15;;;;;;;2.58;0.95;;;21.00;99.90;;;;;;5059529;28;20025;-72
2023/07/14 08:16:41;;;;;;;4.45;1.08;;;21.20;99.90;;;;;;5069023;28;20043;-72
2023/07/14 08:19:07;;;;;;;4.68;1.02;;;21.40;99.90;;;;;;5070667;28;20472;-72
2023/07/14 08:21:35;;;;;;;2.03;0.80;;;21.40;99.90;;;;;;5070172;28;20016;-72
2023/07/14 08:24:01;;;;;;;3.10;0.98;;;21.40;99.90;;;;;;5070721;28;20064;-72
2023/07/14 08:26:27;;;;;;;3.58;0.90;;;21.40;99.90;;;;;;5070317;28;20051;-73
2023/07/14 08:28:53;;;;;;;3.88;1.10;;;21.60;99.90;;;;;;5070432;28;20036;-72
2023/07/14 08:31:19;;;;;;;4.68;1.15;;;21.70;99.90;;;;;;5069776;28;20451;-72
2023/07/14 08:33:44;;;;;;;4.60;1.30;;;21.70;99.90;;;;;;5067498;28;20103;-72
2023/07/14 08:36:12;;;;;;;2.88;1.00;;;21.60;99.90;;;;;;5069019;28;20037;-72
2023/07/14 08:38:39;;;;;;;3.78;1.10;;;21.50;99.90;;;;;;5066575;28;20016;-72
2023/07/14 08:41:23;;;;;;;6.80;1.50;;;21.60;99.90;;;;;;5070137;28;20078;-72
2023/07/14 08:44:31;;;;;;;5.05;1.10;;;21.70;99.90;;;;;;5066293;28;20029;-72
2023/07/14 08:47:27;;;;;;;5.35;1.23;;;21.90;99.90;;;;;;5061924;28;20392;-72
2023/07/14 08:50:03;;;;;;;3.30;0.80;;;22.10;99.90;;;;;;5062108;28;20091;-72
2023/07/14 08:52:35;;;;;;;3.45;1.17;;;22.30;99.80;;;;;;5060378;28;20120;-72
2023/07/14 08:55:15;;;;;;;3.75;1.05;;;22.50;99.10;;;;;;5070333;28;20028;-72
2023/07/14 08:57:49;;;;;;;6.43;1.40;;;22.70;98.80;;;;;;5068751;28;20403;-72
2023/07/14 09:00:30;;;;;;;3.42;1.17;;;22.80;98.50;;;;;;5065823;28;20028;-72
2023/07/14 09:03:24;;;;;;;2.92;1.10;;;22.90;97.80;;;;;;5059328;28;20041;-72
2023/07/14 09:06:02;;;;;;;3.00;1.20;;;22.90;97.40;;;;;;5059175;28;20033;-72
2023/07/14 09:08:29;;;;;;;3.35;1.40;;;22.90;97.20;;;;;;5062892;28;20020;-72
2023/07/14 09:11:19;;;;;;;2.22;1.00;;;22.90;97.00;;;;;;5065241;28;20086;-74
2023/07/14 09:13:54;;;;;;;2.28;0.98;;;22.90;96.20;;;;;;5061849;28;20021;-72
2023/07/14 09:16:23;;;;;;;4.03;0.88;;;22.80;95.80;;;;;;5053976;28;20481;-73
2023/07/14 09:19:23;;;;;;;3.45;1.23;;;22.80;96.10;;;;;;5046684;28;20135;-73
2023/07/14 09:22:00;;;;;;;2.20;0.85;;;22.90;95.50;;;;;;5054243;28;20064;-72
2023/07/14 09:24:45;;;;;;;3.22;0.93;;;22.90;95.20;;;;;;5060438;28;20047;-73
2023/07/14 09:27:26;;;;;;;3.63;0.70;;;23.00;95.00;;;;;;5054372;28;20104;-73
2023/07/14 09:29:53;;;;;;;2.97;0.75;;;23.00;94.40;;;;;;5057336;28;20024;-73
2023/07/14 09:32:39;;;;;;;4.82;0.80;;;23.00;94.40;;;;;;5060209;28;20388;-72
2023/07/14 09:35:09;;;;;;;3.55;0.82;;;23.10;94.10;;;;;;5059394;28;20023;-72
2023/07/14 09:37:50;;;;;;;3.92;0.90;;;23.10;94.00;;;;;;5052479;28;20491;-72
2023/07/14 09:40:23;;;;;;;3.05;0.80;;;23.20;94.20;;;;;;5065069;28;20029;-72
2023/07/14 09:42:57;;;;;;;5.57;0.90;;;23.30;94.30;;;;;;5066717;28;20235;-72
2023/07/14 09:45:35;;;;;;;4.90;0.90;;;23.40;93.60;;;;;;5064044;28;20028;-72
2023/07/14 09:48:16;;;;;;;3.38;0.90;;;23.30;92.80;;;;;;5073262;28;20075;-72
2023/07/14 09:51:00;;;;;;;3.42;1.15;;;23.20;92.80;;;;;;5072723;28;20032;-72
2023/07/14 09:53:28;;;;;;;3.58;1.15;;;23.10;92.80;;;;;;5071643;28;20028;-72
2023/07/14 09:56:01;;;;;;;3.30;0.90;;;23.10;92.60;;;;;;5072737;28;20498;-72
2023/07/14 09:58:29;;;;;;;2.53;0.90;;;23.10;92.70;;;;;;5073153;28;20027;-72
2023/07/14 10:00:57;;;;;;;1.88;0.70;;;23.00;92.70;;;;;;5070432;28;20468;-72
2023/07/14 10:03:29;;;;;;;3.40;0.70;;;23.10;93.30;;;;;;5072914;28;20049;-72
2023/07/14 10:06:03;;;;;;;3.55;0.82;;;23.30;93.30;;;;;;5075022;28;20429;-72
2023/07/14 10:08:49;;;;;;;2.60;0.70;;;23.50;93.20;;;;;;5072489;28;20384;-72
2023/07/14 10:11:24;;;;;;;4.57;0.95;;;23.60;92.40;;;;;;5071420;28;20078;-72
2023/07/14 10:14:02;;;;;;;3.15;0.60;;;23.60;92.10;;;;;;5070708;28;20094;-72
2023/07/14 10:16:32;;;;;;;2.72;0.75;;;23.60;92.00;;;;;;5072271;28;20028;-72
2023/07/14 10:19:03;;;;;;;3.08;0.80;;;23.50;92.20;;;;;;5072405;28;20396;-72
2023/07/14 10:21:32;;;;;;;3.33;1.13;;;23.50;91.70;;;;;;5069375;28;20083;-72
2023/07/14 10:24:05;;;;;;;3.47;0.60;;;23.50;92.00;;;;;;5061104;28;20041;-72
2023/07/14 10:26:39;;;;;;;2.83;0.70;;;23.60;92.00;;;;;;5058645;28;20025;-72
2023/07/14 10:29:06;;;;;;;5.40;0.70;;;23.80;91.60;;;;;;5065342;28;20024;-73
2023/07/14 10:31:38;;;;;;;2.00;0.80;;;24.00;91.90;;;;;;5066578;28;20142;-72
2023/07/14 10:34:03;;;;;;;4.40;0.60;;;24.20;91.40;;;;;;5071671;28;20074;-72
2023/07/14 10:36:37;;;;;;;3.83;0.88;;;24.30;90.90;;;;;;5071624;28;20487;-71
2023/07/14 10:39:24;;;;;;;2.33;0.70;;;24.30;90.40;;;;;;5070229;28;20021;-73
2023/07/14 10:41:52;;;;;;;4.53;0.90;;;24.30;90.40;;;;;;5071740;28;20086;-72
2023/07/14 10:44:32;;;;;;;4.45;0.90;;;24.10;89.80;;;;;;5064129;28;20107;-73
2023/07/14 10:47:10;;;;;;;2.42;0.77;;;24.00;89.60;;;;;;5070994;28;20392;-73
2023/07/14 10:49:41;;;;;;;4.32;0.70;;;24.00;89.50;;;;;;5071355;28;20020;-72
2023/07/14 10:52:41;;;;;;;2.95;1.02;;;24.00;89.00;;;;;;5071451;28;20052;-72
2023/07/14 10:55:27;;;;;;;2.63;0.70;;;24.00;89.40;;;;;;5070163;28;20077;-73
2023/07/14 10:58:05;;;;;;;2.33;0.80;;;24.00;90.00;;;;;;5065813;28;20028;-73
2023/07/14 11:00:40;;;;;;;2.63;0.80;;;24.00;90.40;;;;;;5062189;28;20027;-73
2023/07/14 11:03:26;;;;;;;4.28;1.00;;;24.10;90.20;;;;;;5068908;28;20068;-73
2023/07/14 11:06:08;;;;;;;1.85;1.00;;;24.30;90.10;;;;;;5069488;28;20029;-73
2023/07/14 11:08:34;;;;;;;4.72;1.35;;;24.40;89.90;;;;;;5063114;28;20111;-73
2023/07/14 11:11:12;;;;;;;3.40;1.05;;;24.50;89.30;;;;;;5071441;28;20083;-73
2023/07/14 11:14:16;;;;;;;4.57;1.00;;;24.60;88.80;;;;;;5069298;28;20024;-71
2023/07/14 11:17:01;;;;;;;2.45;0.80;;;24.70;87.50;;;;;;5069438;28;20032;-70
2023/07/14 11:20:08;;;;;;;2.47;1.00;;;24.50;87.50;;;;;;5071470;28;20495;-73
2023/07/14 11:22:56;;;;;;;3.08;0.90;;;24.40;88.00;;;;;;5062496;28;20044;-73
2023/07/14 11:25:44;;;;;;;4.28;1.05;;;24.50;87.80;;;;;;5064429;28;20111;-73
2023/07/14 11:28:30;;;;;;;3.15;1.15;;;24.60;87.50;;;;;;5056259;28;20068;-73
2023/07/14 11:31:01;;;;;;;5.45;1.25;;;24.80;87.50;;;;;;5071417;28;20028;-73
2023/07/14 11:33:38;;;;;;;3.17;1.08;;;25.20;87.30;;;;;;5070667;28;20049;-73
2023/07/14 11:36:47;;;;;;;3.90;1.10;;;25.40;87.00;;;;;;5068066;28;20033;-73
2023/07/14 11:39:43;;;;;;;3.40;1.10;;;25.60;85.70;;;;;;5027567;28;20090;-73
2023/07/14 11:42:18;;;;;;;2.95;1.05;;;25.70;84.90;;;;;;5070311;28;20040;-73
2023/07/14 11:44:45;;;;;;;2.45;1.02;;;25.70;84.80;;;;;;5069561;28;20400;-73
2023/07/14 11:47:34;;;;;;;5.07;1.08;;;25.60;84.10;;;;;;5069151;28;20036;-71
2023/07/14 11:50:03;;;;;;;2.60;0.90;;;25.50;84.30;;;;;;5070797;28;20392;-71
2023/07/14 11:52:30;;;;;;;4.43;1.15;;;25.20;84.90;;;;;;5070830;28;20089;-71
2023/07/14 11:55:04;;;;;;;5.75;0.95;;;25.10;84.40;;;;;;5070661;28;20039;-70
2023/07/14 11:57:46;;;;;;;4.22;0.90;;;25.00;85.40;;;;;;5069053;28;20077;-71
2023/07/14 12:00:26;;;;;;;5.32;1.02;;;24.90;85.40;;;;;;5062509;28;20484;-73
2023/07/14 12:02:57;;;;;;;4.60;0.70;;;25.00;85.70;;;;;;5069273;28;20177;-71
2023/07/14 12:05:32;;;;;;;4.25;0.77;;;25.10;85.50;;;;;;5070393;28;20504;-71
2023/07/14 12:08:19;;;;;;;3.58;1.17;;;25.30;85.20;;;;;;5067859;28;20020;-72
2023/07/14 12:10:46;;;;;;;2.70;0.70;;;25.70;84.60;;;;;;5070631;28;20035;-72
2023/07/14 12:13:27;;;;;;;3.92;0.90;;;26.00;84.40;;;;;;5070955;28;20021;-72
2023/07/14 12:16:18;;;;;;;3.05;1.02;;;26.30;83.70;;;;;;5071767;28;20021;-72
2023/07/14 12:19:04;;;;;;;5.38;1.15;;;26.50;82.00;;;;;;5069176;28;20044;-72
2023/07/14 12:21:34;;;;;;;2.40;0.80;;;26.60;80.90;;;;;;5070233;28;20407;-72
2023/07/14 12:24:11;;;;;;;3.80;0.63;;;26.60;80.10;;;;;;5064837;28;20352;-72
2023/07/14 12:26:43;;;;;;;4.80;0.80;;;26.70;82.00;;;;;;5069063;28;20419;-71
2023/07/14 12:29:15;;;;;;;2.78;0.82;;;26.90;80.70;;;;;;5068984;28;20021;-72
2023/07/14 12:31:41;;;;;;;4.72;0.82;;;27.10;81.10;;;;;;5065941;28;20040;-72
2023/07/14 12:34:18;;;;;;;2.75;1.10;;;27.20;80.60;;;;;;5069614;28;20123;-72
2023/07/14 12:36:44;;;;;;;2.13;0.93;;;27.50;79.60;;;;;;5067815;28;20027;-72
2023/07/14 12:39:09;;;;;;;3.80;1.10;;;27.70;78.20;;;;;;5068962;28;20150;-72
2023/07/14 12:41:39;;;;;;;4.00;0.93;;;27.60;77.10;;;;;;5069823;28;20451;-72
2023/07/14 12:44:05;;;;;;;4.38;1.08;;;27.50;76.90;;;;;;5065874;28;20071;-71
2023/07/14 12:46:36;;;;;;;4.78;1.00;;;27.50;77.30;;;;;;5068357;28;20020;-71
2023/07/14 12:49:13;;;;;;;3.00;1.00;;;27.50;77.20;;;;;;5065183;28;20060;-72
2023/07/14 12:51:41;;;;;;;3.42;0.90;;;27.50;76.00;;;;;;5057596;28;20608;-72
2023/07/14 12:54:14;;;;;;;3.40;1.23;;;27.20;76.50;;;;;;5062846;28;20502;-72
2023/07/14 12:56:39;;;;;;;2.15;1.17;;;27.40;76.50;;;;;;5053307;28;20029;-72